Time;durP1;ratioP1;P1;durP2;ratioP2;P2;SDS_P1;SDS_P2;PMS_P1;PMS_P2;Temp;Humidity;BMP_temperature;BMP_pressure;BME280_temperature;BME280_humidity;BME280_pressure;Samples;Min_cycle;Max_cycle;Signal;HPM_P1;HPM_P2
2024/01/25 00:01:33;;;;;;;5.90;3.78;;;3.20;99.90;;;;;;5038113;28;20553;-82
2024/01/25 00:03:59;;;;;;;7.13;4.07;;;3.20;99.90;;;;;;5038799;28;20494;-82
2024/01/25 00:06:25;;;;;;;7.00;3.28;;;3.10;99.90;;;;;;5054516;28;20017;-82
2024/01/25 00:08:51;;;;;;;7.70;3.60;;;3.20;99.90;;;;;;5037870;28;20182;-82
2024/01/25 00:11:16;;;;;;;8.63;4.45;;;3.20;99.90;;;;;;5054083;28;20027;-82
2024/01/25 00:13:42;;;;;;;4.20;2.60;;;3.20;99.90;;;;;;5054214;28;20124;-82
2024/01/25 00:16:08;;;;;;;3.63;2.17;;;3.20;99.90;;;;;;5037944;28;20032;-82
2024/01/25 00:18:34;;;;;;;3.97;2.05;;;3.30;99.90;;;;;;5054348;28;20037;-82
2024/01/25 00:20:59;;;;;;;3.25;2.00;;;3.30;99.90;;;;;;5037939;28;20024;-82
2024/01/25 00:23:25;;;;;;;6.05;2.53;;;3.30;99.90;;;;;;5037067;28;20067;-83
2024/01/25 00:25:51;;;;;;;5.43;2.28;;;3.30;99.90;;;;;;5053685;28;20025;-82
2024/01/25 00:28:17;;;;;;;4.55;2.25;;;3.30;99.90;;;;;;5053392;28;20132;-82
2024/01/25 00:30:42;;;;;;;4.15;2.30;;;3.30;99.90;;;;;;5053514;28;20029;-82
2024/01/25 00:33:08;;;;;;;3.15;1.92;;;3.20;99.90;;;;;;5052943;28;20032;-82
2024/01/25 00:35:34;;;;;;;3.65;2.28;;;3.20;99.90;;;;;;5053523;28;20477;-82
2024/01/25 00:38:00;;;;;;;7.22;2.75;;;3.10;99.90;;;;;;5053262;28;20052;-82
2024/01/25 00:40:26;;;;;;;4.10;2.45;;;3.10;99.90;;;;;;5053305;28;20087;-82
2024/01/25 00:42:55;;;;;;;8.02;3.08;;;3.10;99.90;;;;;;5053283;28;20480;-82
2024/01/25 00:45:22;;;;;;;7.95;3.50;;;3.10;99.90;;;;;;5037054;28;20037;-82
2024/01/25 00:47:50;;;;;;;4.50;2.55;;;3.00;99.90;;;;;;5054545;28;20021;-82
2024/01/25 00:50:20;;;;;;;5.85;2.83;;;3.00;99.90;;;;;;5053878;28;20033;-82
2024/01/25 00:52:48;;;;;;;4.78;2.75;;;3.00;99.90;;;;;;5052919;28;20029;-82
2024/01/25 00:55:15;;;;;;;5.70;2.95;;;3.10;99.90;;;;;;5054289;28;20033;-82
2024/01/25 00:57:41;;;;;;;4.68;2.90;;;3.10;99.90;;;;;;5053206;28;20067;-82
2024/01/25 01:00:08;;;;;;;6.47;2.97;;;3.10;99.90;;;;;;5054411;28;20031;-82
2024/01/25 01:02:38;;;;;;;6.20;3.08;;;3.10;99.90;;;;;;5053769;28;20017;-82
2024/01/25 01:05:04;;;;;;;4.50;2.90;;;3.10;99.90;;;;;;5053608;28;20017;-82
2024/01/25 01:07:30;;;;;;;4.50;2.78;;;3.10;99.90;;;;;;5054015;28;20029;-81
2024/01/25 01:09:56;;;;;;;6.65;2.60;;;3.00;99.90;;;;;;5052778;28;20429;-82
2024/01/25 01:12:22;;;;;;;3.97;2.80;;;3.00;99.90;;;;;;5052462;28;20021;-82
2024/01/25 01:14:48;;;;;;;5.03;2.83;;;3.00;99.90;;;;;;5036144;28;20025;-82
2024/01/25 01:17:14;;;;;;;5.38;2.92;;;3.00;99.90;;;;;;5052663;28;20515;-82
2024/01/25 01:19:39;;;;;;;5.43;3.10;;;3.00;99.90;;;;;;5052526;28;20103;-82
2024/01/25 01:22:05;;;;;;;6.20;2.80;;;3.00;99.90;;;;;;5052438;28;20469;-82
2024/01/25 01:24:30;;;;;;;5.05;2.38;;;3.00;99.90;;;;;;5035571;28;20055;-81
2024/01/25 01:26:56;;;;;;;4.68;2.00;;;2.90;99.90;;;;;;5034237;28;20021;-81
2024/01/25 01:29:22;;;;;;;4.75;2.72;;;2.90;99.90;;;;;;5052534;28;20374;-82
2024/01/25 01:31:47;;;;;;;4.00;2.30;;;2.90;99.90;;;;;;5052189;28;20393;-82
2024/01/25 01:34:13;;;;;;;4.93;1.90;;;2.90;99.90;;;;;;5052281;28;20435;-82
2024/01/25 01:36:39;;;;;;;3.97;2.00;;;3.00;99.90;;;;;;5023846;28;20034;-82
2024/01/25 01:39:06;;;;;;;4.85;1.92;;;3.00;99.90;;;;;;5032399;28;20064;-82
2024/01/25 01:41:32;;;;;;;5.25;2.38;;;2.90;99.90;;;;;;5034562;28;20036;-82
2024/01/25 01:43:57;;;;;;;6.60;2.50;;;2.90;99.90;;;;;;5052365;28;20021;-82
2024/01/25 01:46:36;;;;;;;4.28;2.03;;;2.90;99.90;;;;;;5052158;28;20029;-82
2024/01/25 01:49:03;;;;;;;3.05;1.70;;;2.90;99.90;;;;;;5052091;28;20048;-81
2024/01/25 01:51:31;;;;;;;3.38;1.90;;;2.90;99.90;;;;;;5052236;28;20032;-82
2024/01/25 01:53:57;;;;;;;4.60;1.92;;;2.80;99.90;;;;;;5053588;28;20040;-82
2024/01/25 01:56:26;;;;;;;6.93;2.67;;;2.90;99.90;;;;;;5053256;28;20021;-81
2024/01/25 01:58:53;;;;;;;4.18;1.60;;;2.90;99.90;;;;;;5051561;28;20021;-81
2024/01/25 02:01:20;;;;;;;2.58;1.27;;;2.90;99.90;;;;;;5052095;28;20100;-82
2024/01/25 02:03:46;;;;;;;4.50;1.15;;;3.00;99.90;;;;;;5057266;28;20054;-82
2024/01/25 02:06:12;;;;;;;3.53;1.13;;;3.00;99.90;;;;;;5058173;28;20100;-82
2024/01/25 02:08:38;;;;;;;1.60;0.98;;;3.00;99.90;;;;;;5057011;28;20489;-82
2024/01/25 02:11:04;;;;;;;3.42;1.27;;;2.90;99.90;;;;;;5056433;28;20036;-82
2024/01/25 02:13:29;;;;;;;2.47;1.10;;;2.90;99.90;;;;;;5056639;28;20029;-82
2024/01/25 02:15:55;;;;;;;3.85;1.90;;;2.90;99.90;;;;;;5057810;28;20108;-82
2024/01/25 02:18:21;;;;;;;5.95;1.85;;;2.90;99.90;;;;;;5056437;28;20068;-82
2024/01/25 02:20:46;;;;;;;4.78;1.88;;;2.90;99.90;;;;;;5056682;28;20380;-82
2024/01/25 02:23:12;;;;;;;4.95;2.13;;;2.90;99.90;;;;;;5056545;28;20448;-82
2024/01/25 02:25:38;;;;;;;3.90;1.40;;;2.90;99.90;;;;;;5057606;28;20025;-81
2024/01/25 02:28:04;;;;;;;1.75;0.90;;;2.90;99.90;;;;;;5056299;28;20104;-82
2024/01/25 02:30:29;;;;;;;1.92;0.70;;;3.00;99.90;;;;;;5039455;28;20052;-82
2024/01/25 02:32:55;;;;;;;2.97;0.70;;;2.90;99.90;;;;;;5056154;28;20036;-82
2024/01/25 02:35:21;;;;;;;1.10;0.60;;;3.00;99.90;;;;;;5055652;28;20041;-82
2024/01/25 02:37:47;;;;;;;2.15;1.00;;;3.00;99.90;;;;;;5055674;28;20029;-80
2024/01/25 02:40:13;;;;;;;3.13;0.93;;;2.90;99.90;;;;;;5056772;28;20021;-82
2024/01/25 02:42:38;;;;;;;3.80;1.30;;;2.90;99.90;;;;;;5055474;28;20025;-82
2024/01/25 02:45:04;;;;;;;4.03;2.10;;;2.90;99.90;;;;;;5055533;28;20113;-81
2024/01/25 02:47:30;;;;;;;6.90;2.25;;;2.90;99.90;;;;;;5056506;28;20487;-81
2024/01/25 02:49:56;;;;;;;4.07;1.90;;;2.90;99.90;;;;;;5055460;28;20033;-81
2024/01/25 02:52:21;;;;;;;3.22;1.85;;;2.90;99.90;;;;;;5056624;28;20029;-82
2024/01/25 02:54:47;;;;;;;4.85;1.92;;;2.90;99.90;;;;;;5038950;28;20428;-82
2024/01/25 02:57:13;;;;;;;3.90;1.80;;;3.00;99.90;;;;;;5038765;28;20484;-82
2024/01/25 02:59:38;;;;;;;5.53;1.80;;;3.00;99.90;;;;;;5055163;28;20043;-81
2024/01/25 03:02:04;;;;;;;1.67;0.90;;;3.00;99.90;;;;;;5056542;28;20477;-82
2024/01/25 03:04:30;;;;;;;3.28;1.10;;;3.00;99.90;;;;;;5056363;28;20025;-82
2024/01/25 03:06:55;;;;;;;4.38;1.33;;;3.00;99.90;;;;;;5056549;28;20083;-82
2024/01/25 03:09:23;;;;;;;3.33;1.10;;;3.00;99.90;;;;;;5055021;28;20069;-82
2024/01/25 03:11:49;;;;;;;3.17;1.20;;;3.00;99.90;;;;;;5056729;28;20026;-82
2024/01/25 03:14:15;;;;;;;3.45;1.00;;;2.90;99.90;;;;;;5037731;28;20393;-82
2024/01/25 03:16:40;;;;;;;3.78;1.20;;;2.80;99.90;;;;;;5056131;28;20485;-82
2024/01/25 03:19:06;;;;;;;2.92;1.30;;;2.80;99.90;;;;;;5055772;28;20068;-82
2024/01/25 03:21:32;;;;;;;2.53;1.23;;;2.80;99.90;;;;;;5038285;28;20079;-82
2024/01/25 03:23:57;;;;;;;2.42;1.40;;;2.70;99.90;;;;;;5056041;28;20482;-81
2024/01/25 03:26:23;;;;;;;2.88;1.65;;;2.70;99.90;;;;;;5055942;28;20071;-81
2024/01/25 03:28:49;;;;;;;6.38;2.30;;;2.70;99.90;;;;;;5037847;28;20049;-81
2024/01/25 03:31:14;;;;;;;3.78;2.17;;;2.60;99.90;;;;;;5056414;28;20469;-81
2024/01/25 03:33:40;;;;;;;3.92;2.53;;;2.70;99.90;;;;;;5055741;28;20557;-81
2024/01/25 03:36:06;;;;;;;5.97;3.78;;;2.70;99.90;;;;;;5054609;28;20393;-81
2024/01/25 03:38:32;;;;;;;6.93;3.45;;;2.60;99.90;;;;;;5055385;28;20037;-81
2024/01/25 03:40:58;;;;;;;3.95;2.08;;;2.60;99.90;;;;;;5054393;28;20474;-82
2024/01/25 03:43:27;;;;;;;2.17;1.08;;;2.60;99.90;;;;;;5055635;28;20104;-81
2024/01/25 03:45:53;;;;;;;1.45;0.85;;;2.60;99.90;;;;;;5054318;28;20025;-81
2024/01/25 03:48:19;;;;;;;2.38;1.17;;;2.70;99.90;;;;;;5054144;28;20486;-81
2024/01/25 03:50:45;;;;;;;3.72;0.90;;;2.70;99.90;;;;;;5054208;28;20056;-81
2024/01/25 03:53:11;;;;;;;4.45;1.00;;;2.60;99.90;;;;;;5054445;28;20039;-81
2024/01/25 03:55:36;;;;;;;2.22;1.05;;;2.60;99.90;;;;;;5055406;28;20120;-81
2024/01/25 03:58:02;;;;;;;2.22;0.75;;;2.60;99.90;;;;;;5037336;28;20029;-81
2024/01/25 04:00:28;;;;;;;0.73;0.50;;;2.60;99.90;;;;;;5055923;28;20021;-81
2024/01/25 04:02:54;;;;;;;2.33;0.50;;;2.60;99.90;;;;;;5054076;28;20535;-82
2024/01/25 04:05:19;;;;;;;1.70;0.30;;;2.60;99.90;;;;;;5055096;28;20025;-81
2024/01/25 04:07:45;;;;;;;0.73;0.35;;;2.50;99.90;;;;;;5055204;28;20025;-81
2024/01/25 04:10:10;;;;;;;0.55;0.35;;;2.60;99.90;;;;;;5053792;28;20087;-81
2024/01/25 04:12:36;;;;;;;2.10;0.40;;;2.60;99.90;;;;;;5054445;28;20025;-81
2024/01/25 04:15:02;;;;;;;1.05;0.30;;;2.60;99.90;;;;;;5037691;28;20025;-80
2024/01/25 04:17:28;;;;;;;2.47;0.40;;;2.60;99.90;;;;;;5056218;28;20021;-81
2024/01/25 04:19:53;;;;;;;1.30;0.60;;;2.60;99.90;;;;;;5036193;28;20056;-81
2024/01/25 04:22:19;;;;;;;1.85;0.38;;;2.50;99.90;;;;;;5052857;28;20050;-81
2024/01/25 04:24:48;;;;;;;1.60;0.45;;;2.50;99.90;;;;;;5033087;28;20025;-81
2024/01/25 04:27:14;;;;;;;1.02;0.40;;;2.50;99.90;;;;;;5033762;28;20022;-81
2024/01/25 04:29:41;;;;;;;1.38;0.68;;;2.50;99.90;;;;;;5050256;28;20083;-81
2024/01/25 04:32:07;;;;;;;13.32;5.07;;;2.50;99.90;;;;;;5053649;28;20131;-81
2024/01/25 04:34:33;;;;;;;9.00;2.47;;;2.40;99.90;;;;;;5054724;28;20052;-81
2024/01/25 04:36:59;;;;;;;5.45;1.60;;;2.40;99.90;;;;;;5053690;28;20509;-81
2024/01/25 04:39:25;;;;;;;2.30;1.10;;;2.40;99.90;;;;;;5053597;28;20104;-81
2024/01/25 04:41:50;;;;;;;2.55;0.93;;;2.40;99.90;;;;;;5053468;28;20036;-81
2024/01/25 04:44:16;;;;;;;1.67;0.60;;;2.40;99.90;;;;;;5036820;28;20021;-81
2024/01/25 04:46:42;;;;;;;1.05;0.55;;;2.40;99.90;;;;;;5054608;28;20021;-81
2024/01/25 04:49:09;;;;;;;1.33;0.50;;;2.40;99.90;;;;;;5054572;28;20107;-81
2024/01/25 04:51:35;;;;;;;1.17;0.38;;;2.40;99.90;;;;;;5036936;28;20037;-81
2024/01/25 04:54:00;;;;;;;0.50;0.20;;;2.40;99.90;;;;;;5055057;28;20476;-81
2024/01/25 04:56:26;;;;;;;0.30;0.30;;;2.30;99.90;;;;;;5054698;28;20047;-81
2024/01/25 04:58:52;;;;;;;0.40;0.30;;;2.30;99.90;;;;;;5054037;28;20033;-81
2024/01/25 05:01:18;;;;;;;3.47;1.52;;;2.30;99.90;;;;;;5052886;28;20075;-82
2024/01/25 05:03:43;;;;;;;2.80;1.50;;;2.20;99.90;;;;;;5053143;28;20025;-82
2024/01/25 05:06:09;;;;;;;1.40;0.50;;;2.20;99.90;;;;;;5054496;28;20057;-82
2024/01/25 05:08:34;;;;;;;1.00;0.55;;;2.10;99.90;;;;;;5036503;28;20033;-81
2024/01/25 05:11:00;;;;;;;0.93;0.52;;;2.10;99.90;;;;;;5052896;28;20067;-81
2024/01/25 05:13:26;;;;;;;0.98;0.50;;;2.10;99.90;;;;;;5053091;28;20024;-81
2024/01/25 05:15:51;;;;;;;1.27;0.60;;;2.00;99.90;;;;;;5054717;28;20055;-81
2024/01/25 05:18:17;;;;;;;1.83;0.70;;;2.00;99.90;;;;;;5036116;28;20029;-81
2024/01/25 05:20:43;;;;;;;1.50;1.10;;;2.00;99.90;;;;;;5052332;28;20082;-81
2024/01/25 05:23:08;;;;;;;2.47;1.38;;;2.00;99.90;;;;;;5053749;28;20032;-81
2024/01/25 05:25:34;;;;;;;2.42;1.50;;;2.10;99.90;;;;;;5053614;28;20025;-81
2024/01/25 05:28:00;;;;;;;5.03;3.10;;;2.00;99.90;;;;;;5053700;28;20025;-81
2024/01/25 05:30:26;;;;;;;7.40;3.50;;;2.00;99.90;;;;;;5051996;28;20035;-81
2024/01/25 05:32:54;;;;;;;7.90;3.97;;;2.00;99.90;;;;;;5052291;28;20100;-82
2024/01/25 05:35:20;;;;;;;61.60;24.90;;;2.00;99.90;;;;;;5052067;28;20116;-81
2024/01/25 05:37:45;;;;;;;52.95;24.08;;;2.00;99.90;;;;;;5053351;28;20021;-82
2024/01/25 05:40:12;;;;;;;43.83;21.95;;;2.00;99.90;;;;;;5053246;28;20021;-81
2024/01/25 05:42:38;;;;;;;39.50;20.00;;;1.90;99.90;;;;;;5052144;28;20428;-81
2024/01/25 05:45:05;;;;;;;46.80;21.05;;;1.90;99.90;;;;;;5052004;28;20024;-81
2024/01/25 05:47:31;;;;;;;23.33;11.45;;;1.90;99.90;;;;;;5052510;28;20079;-81
2024/01/25 05:49:57;;;;;;;25.73;12.40;;;2.00;99.90;;;;;;5053810;28;20021;-81
2024/01/25 05:52:23;;;;;;;8.88;5.05;;;1.90;99.90;;;;;;5053340;28;20544;-82
2024/01/25 05:54:50;;;;;;;10.75;6.30;;;1.90;99.90;;;;;;5053324;28;20029;-82
2024/01/25 05:57:16;;;;;;;5.85;3.15;;;1.90;99.90;;;;;;5035401;28;20025;-82
2024/01/25 05:59:42;;;;;;;3.35;2.00;;;1.90;99.90;;;;;;5053163;28;20437;-82
2024/01/25 06:02:08;;;;;;;3.90;1.80;;;1.90;99.90;;;;;;5053230;28;20167;-81
2024/01/25 06:04:34;;;;;;;4.30;2.53;;;1.90;99.90;;;;;;5035553;28;20417;-82
2024/01/25 06:07:00;;;;;;;3.92;2.45;;;1.90;99.90;;;;;;5035603;28;20029;-82
2024/01/25 06:09:26;;;;;;;7.63;3.60;;;1.80;99.90;;;;;;5053194;28;20033;-82
2024/01/25 06:11:52;;;;;;;9.80;4.57;;;1.80;99.90;;;;;;5052302;28;20029;-82
2024/01/25 06:14:18;;;;;;;8.82;4.20;;;1.80;99.90;;;;;;5051918;28;20033;-82
2024/01/25 06:16:44;;;;;;;5.70;3.67;;;1.80;99.90;;;;;;5053041;28;20052;-82
2024/01/25 06:19:10;;;;;;;7.97;3.85;;;1.80;99.90;;;;;;5053335;28;20032;-82
2024/01/25 06:21:37;;;;;;;12.18;4.88;;;1.80;99.90;;;;;;5053066;28;20022;-81
2024/01/25 06:24:04;;;;;;;11.98;6.35;;;1.80;99.90;;;;;;5053264;28;20048;-81
2024/01/25 06:26:30;;;;;;;11.93;5.95;;;1.80;99.90;;;;;;5052840;28;20030;-81
2024/01/25 06:28:56;;;;;;;11.13;5.63;;;1.80;99.90;;;;;;5053012;28;20104;-81
2024/01/25 06:31:22;;;;;;;10.15;5.13;;;1.90;99.90;;;;;;5052921;28;20033;-81
2024/01/25 06:33:50;;;;;;;9.82;4.70;;;1.90;99.90;;;;;;5051688;28;20489;-81
2024/01/25 06:36:16;;;;;;;6.07;3.22;;;2.00;99.90;;;;;;5052893;28;20545;-81
2024/01/25 06:38:42;;;;;;;6.47;3.38;;;2.00;99.90;;;;;;5051520;28;20382;-81
2024/01/25 06:41:09;;;;;;;2.47;1.30;;;2.00;99.90;;;;;;5035171;28;20032;-81
2024/01/25 06:43:34;;;;;;;4.22;1.60;;;2.00;99.90;;;;;;5052827;28;20029;-81
2024/01/25 06:46:00;;;;;;;3.05;1.65;;;2.00;99.90;;;;;;5035017;28;20482;-81
2024/01/25 06:48:26;;;;;;;4.55;1.73;;;2.00;99.90;;;;;;5052894;28;20041;-81
2024/01/25 06:50:52;;;;;;;4.13;2.60;;;2.00;99.90;;;;;;5055396;28;20025;-81
2024/01/25 06:53:18;;;;;;;8.73;5.40;;;2.00;99.90;;;;;;5055255;28;20025;-81
2024/01/25 06:55:44;;;;;;;10.27;5.03;;;2.00;99.90;;;;;;5055119;28;20083;-81
2024/01/25 06:58:10;;;;;;;9.68;5.43;;;2.00;99.90;;;;;;5038528;28;20033;-81
2024/01/25 07:00:35;;;;;;;8.95;4.70;;;2.00;99.90;;;;;;5055126;28;20017;-81
2024/01/25 07:03:01;;;;;;;8.25;4.72;;;2.00;99.90;;;;;;5055224;28;20029;-82
2024/01/25 07:05:26;;;;;;;9.05;4.20;;;2.00;99.90;;;;;;5038442;28;20025;-82
2024/01/25 07:07:53;;;;;;;5.97;3.40;;;2.00;99.90;;;;;;5055141;28;20033;-81
2024/01/25 07:10:18;;;;;;;6.00;3.60;;;2.00;99.90;;;;;;5055016;28;20029;-81
2024/01/25 07:12:44;;;;;;;6.10;3.80;;;2.00;99.90;;;;;;5056210;28;20025;-81
2024/01/25 07:15:10;;;;;;;10.00;5.57;;;2.00;99.90;;;;;;5056305;28;20032;-82
2024/01/25 07:17:36;;;;;;;10.15;6.32;;;2.00;99.90;;;;;;5054806;28;20114;-82
2024/01/25 07:20:01;;;;;;;8.05;5.25;;;2.10;99.90;;;;;;5054850;28;20493;-82
2024/01/25 07:22:27;;;;;;;6.15;3.78;;;2.10;99.90;;;;;;5056332;28;20048;-81
2024/01/25 07:24:53;;;;;;;6.95;3.78;;;2.00;99.90;;;;;;5055855;28;20100;-81
2024/01/25 07:27:19;;;;;;;4.97;2.60;;;2.10;99.90;;;;;;5054848;28;20358;-81
2024/01/25 07:29:45;;;;;;;6.60;3.53;;;2.10;99.90;;;;;;5054534;28;20044;-82
2024/01/25 07:32:11;;;;;;;6.97;3.95;;;2.10;99.90;;;;;;5056106;28;20029;-82
2024/01/25 07:34:37;;;;;;;5.03;3.50;;;2.10;99.90;;;;;;5054564;28;20037;-82
2024/01/25 07:37:03;;;;;;;8.88;4.70;;;2.10;99.90;;;;;;5055971;28;20108;-81
2024/01/25 07:39:29;;;;;;;8.82;4.72;;;2.00;99.90;;;;;;5037774;28;20029;-81
2024/01/25 07:41:55;;;;;;;9.25;5.50;;;2.00;99.90;;;;;;5038098;28;20436;-82
2024/01/25 07:44:20;;;;;;;6.43;4.50;;;1.90;99.90;;;;;;5054699;28;20036;-82
2024/01/25 07:46:47;;;;;;;6.90;4.10;;;1.90;99.90;;;;;;5055077;28;20025;-83
2024/01/25 07:49:13;;;;;;;5.32;3.03;;;1.90;99.90;;;;;;5055954;28;20021;-83
2024/01/25 07:51:38;;;;;;;3.78;2.00;;;1.90;99.90;;;;;;5055599;28;20112;-82
2024/01/25 07:54:04;;;;;;;4.90;2.25;;;1.90;99.90;;;;;;5054310;28;20105;-82
2024/01/25 07:56:31;;;;;;;5.72;2.97;;;1.90;99.90;;;;;;5038162;28;20378;-84
2024/01/25 07:58:59;;;;;;;7.15;5.30;;;1.90;99.90;;;;;;5021726;28;20029;-82
2024/01/25 08:01:25;;;;;;;6.25;4.55;;;1.90;99.90;;;;;;5054126;28;20545;-82
2024/01/25 08:03:51;;;;;;;5.70;3.67;;;2.00;99.90;;;;;;5053938;28;20075;-82
2024/01/25 08:06:16;;;;;;;7.28;4.90;;;2.00;99.90;;;;;;5053891;28;20389;-82
2024/01/25 08:08:42;;;;;;;5.40;3.13;;;2.00;99.90;;;;;;5055162;28;20044;-82
2024/01/25 08:11:08;;;;;;;4.85;2.75;;;2.00;99.90;;;;;;5053923;28;20480;-82
2024/01/25 08:13:34;;;;;;;6.70;3.53;;;2.00;99.90;;;;;;5054112;28;20504;-82
2024/01/25 08:15:59;;;;;;;6.97;4.50;;;2.00;99.90;;;;;;5055283;28;20115;-82
2024/01/25 08:18:29;;;;;;;4.10;2.70;;;2.00;99.90;;;;;;5053722;28;20025;-82
2024/01/25 08:20:55;;;;;;;4.90;3.00;;;2.00;99.90;;;;;;5053635;28;20025;-82
2024/01/25 08:23:20;;;;;;;4.78;2.40;;;2.00;99.90;;;;;;5055417;28;20021;-82
2024/01/25 08:25:46;;;;;;;5.68;3.70;;;2.10;99.90;;;;;;5054826;28;20029;-82
2024/01/25 08:28:12;;;;;;;5.80;3.80;;;2.10;99.90;;;;;;5036930;28;20032;-82
2024/01/25 08:30:37;;;;;;;7.95;4.90;;;2.10;99.90;;;;;;5053847;28;20053;-82
2024/01/25 08:33:03;;;;;;;6.03;3.53;;;2.10;99.90;;;;;;5054899;28;20044;-82
2024/01/25 08:35:30;;;;;;;6.60;3.95;;;2.20;99.90;;;;;;5053461;28;20033;-81
2024/01/25 08:37:56;;;;;;;6.20;3.35;;;2.20;99.90;;;;;;5054513;28;20025;-82
2024/01/25 08:40:22;;;;;;;5.93;3.60;;;2.20;99.90;;;;;;5053701;28;20428;-82
2024/01/25 08:42:47;;;;;;;4.93;2.90;;;2.20;99.90;;;;;;5054839;28;20021;-82
2024/01/25 08:45:13;;;;;;;4.35;2.72;;;2.20;99.90;;;;;;5036568;28;20025;-82
2024/01/25 08:47:39;;;;;;;4.60;2.50;;;2.20;99.90;;;;;;5053555;28;20063;-82
2024/01/25 08:50:10;;;;;;;4.20;2.40;;;2.30;99.90;;;;;;5036555;28;20025;-82
2024/01/25 08:52:40;;;;;;;6.53;3.72;;;2.30;99.90;;;;;;5054646;28;20032;-82
2024/01/25 08:55:06;;;;;;;5.32;3.40;;;2.40;99.90;;;;;;5053005;28;20123;-82
2024/01/25 08:57:32;;;;;;;5.57;3.20;;;2.40;99.90;;;;;;5054409;28;20100;-82
2024/01/25 08:59:58;;;;;;;6.78;3.60;;;2.40;99.90;;;;;;5052887;28;20033;-82
2024/01/25 09:02:29;;;;;;;5.82;3.42;;;2.40;99.90;;;;;;5054719;28;20052;-82
2024/01/25 09:04:55;;;;;;;10.05;5.28;;;2.40;99.90;;;;;;5055378;28;20032;-82
2024/01/25 09:07:21;;;;;;;9.55;4.63;;;2.40;99.90;;;;;;5054255;28;20025;-82
2024/01/25 09:09:46;;;;;;;5.07;3.03;;;2.50;99.90;;;;;;5036247;28;20075;-82
2024/01/25 09:12:12;;;;;;;2.97;1.70;;;2.50;99.90;;;;;;5036018;28;20071;-82
2024/01/25 09:14:39;;;;;;;2.30;1.52;;;2.50;99.90;;;;;;5054985;28;20036;-83
2024/01/25 09:17:05;;;;;;;2.92;1.35;;;2.60;99.90;;;;;;5053117;28;20025;-82
2024/01/25 09:19:31;;;;;;;3.58;1.58;;;2.70;99.90;;;;;;5053451;28;20086;-82
2024/01/25 09:21:59;;;;;;;5.13;2.45;;;2.70;99.90;;;;;;5053182;28;20036;-82
2024/01/25 09:24:26;;;;;;;5.43;2.65;;;2.80;99.90;;;;;;5054560;28;20017;-82
2024/01/25 09:26:51;;;;;;;6.25;2.85;;;2.80;99.90;;;;;;5053189;28;20021;-82
2024/01/25 09:29:17;;;;;;;4.70;2.85;;;2.80;99.90;;;;;;5052965;28;20048;-81
2024/01/25 09:31:42;;;;;;;5.40;3.10;;;2.90;99.90;;;;;;5054266;28;20112;-81
2024/01/25 09:34:08;;;;;;;4.82;2.63;;;2.90;99.90;;;;;;5053415;28;20041;-81
2024/01/25 09:36:34;;;;;;;4.25;2.55;;;2.90;99.90;;;;;;5052283;28;20029;-81
2024/01/25 09:38:59;;;;;;;6.20;3.25;;;2.90;99.90;;;;;;5052640;28;20108;-81
2024/01/25 09:41:25;;;;;;;4.85;2.58;;;2.90;99.90;;;;;;5052755;28;20025;-81
2024/01/25 09:43:51;;;;;;;6.38;1.88;;;3.00;99.90;;;;;;5052577;28;20029;-81
2024/01/25 09:46:17;;;;;;;4.97;2.83;;;3.10;99.90;;;;;;5035534;28;20116;-81
2024/01/25 09:48:45;;;;;;;2.63;1.90;;;3.20;99.90;;;;;;5035493;28;20028;-82
2024/01/25 09:51:12;;;;;;;2.20;1.40;;;3.30;99.90;;;;;;5053714;28;20100;-81
2024/01/25 09:53:40;;;;;;;2.28;1.55;;;3.30;99.90;;;;;;5053319;28;20029;-82
2024/01/25 09:56:08;;;;;;;2.35;1.17;;;3.30;99.90;;;;;;5053308;28;20485;-82
2024/01/25 09:58:39;;;;;;;2.15;1.10;;;3.40;99.90;;;;;;5052435;28;20099;-82
2024/01/25 10:01:07;;;;;;;;;;;3.50;99.90;;;;;;5053831;28;20017;-81
2024/01/25 10:03:34;;;;;;;2.90;1.60;;;3.50;99.90;;;;;;5053623;28;19944;-81
2024/01/25 10:06:00;;;;;;;3.13;1.48;;;3.60;99.90;;;;;;5051958;28;20025;-81
2024/01/25 10:08:26;;;;;;;3.25;1.75;;;3.60;99.90;;;;;;5053237;28;20112;-82
2024/01/25 10:10:53;;;;;;;3.60;2.60;;;3.70;99.90;;;;;;5035368;28;20447;-82
2024/01/25 10:13:19;;;;;;;5.22;2.97;;;3.70;99.90;;;;;;5035499;28;20394;-82
2024/01/25 10:15:47;;;;;;;3.42;2.03;;;3.70;99.90;;;;;;5051877;28;20033;-81
2024/01/25 10:18:16;;;;;;;2.58;1.85;;;3.70;99.90;;;;;;5053378;28;20111;-81
2024/01/25 10:20:44;;;;;;;2.10;1.23;;;3.70;99.90;;;;;;5053361;28;20032;-81
2024/01/25 10:23:10;;;;;;;3.33;1.65;;;3.70;99.90;;;;;;5052800;28;20025;-81
2024/01/25 10:25:37;;;;;;;2.72;1.75;;;3.60;99.90;;;;;;5057056;28;20083;-81
2024/01/25 10:28:04;;;;;;;3.15;1.63;;;3.60;99.90;;;;;;5057129;28;20049;-81
2024/01/25 10:30:34;;;;;;;3.92;2.03;;;3.70;99.90;;;;;;5057085;28;20063;-81
2024/01/25 10:33:00;;;;;;;3.13;1.40;;;3.70;99.90;;;;;;5056891;28;20021;-81
2024/01/25 10:35:27;;;;;;;2.42;1.20;;;3.70;99.90;;;;;;5055717;28;20032;-81
2024/01/25 10:37:53;;;;;;;2.50;1.40;;;3.70;99.90;;;;;;5056885;28;20459;-81
2024/01/25 10:40:20;;;;;;;3.35;1.42;;;3.80;99.90;;;;;;5055588;28;20049;-81
2024/01/25 10:42:46;;;;;;;3.83;1.88;;;3.80;99.90;;;;;;5056824;28;20075;-81
2024/01/25 10:45:12;;;;;;;3.53;1.70;;;3.80;99.90;;;;;;5056705;28;20108;-82
2024/01/25 10:47:40;;;;;;;3.03;1.55;;;3.80;99.90;;;;;;5056704;28;20531;-81
2024/01/25 10:50:10;;;;;;;2.33;1.42;;;3.90;99.90;;;;;;5039165;28;20029;-81
2024/01/25 10:52:38;;;;;;;2.67;1.52;;;4.00;99.90;;;;;;5055298;28;20033;-81
2024/01/25 10:55:05;;;;;;;2.92;1.63;;;4.00;99.90;;;;;;5056911;28;20021;-82
2024/01/25 10:57:37;;;;;;;2.85;1.70;;;4.10;99.90;;;;;;5056892;28;20477;-82
2024/01/25 11:00:10;;;;;;;3.88;1.80;;;4.20;99.90;;;;;;5057348;28;20108;-82
2024/01/25 11:02:36;;;;;;;3.42;1.92;;;4.20;99.90;;;;;;5055317;28;20029;-82
2024/01/25 11:05:03;;;;;;;2.67;1.63;;;4.20;99.90;;;;;;5055854;28;20374;-82
2024/01/25 11:07:29;;;;;;;5.47;3.00;;;4.30;99.90;;;;;;5056632;28;20029;-82
2024/01/25 11:09:55;;;;;;;4.97;3.03;;;4.40;99.90;;;;;;5055781;28;20535;-82
2024/01/25 11:12:21;;;;;;;4.45;2.47;;;4.60;99.90;;;;;;5056329;28;20116;-82
2024/01/25 11:14:55;;;;;;;5.60;2.83;;;4.60;99.90;;;;;;5056471;28;20556;-82
2024/01/25 11:17:22;;;;;;;5.95;3.03;;;4.60;99.90;;;;;;5054872;28;20389;-82
2024/01/25 11:19:50;;;;;;;4.30;2.80;;;4.70;99.90;;;;;;5056276;28;20083;-82
2024/01/25 11:22:17;;;;;;;3.22;2.08;;;4.70;99.90;;;;;;5054818;28;20048;-81
2024/01/25 11:24:43;;;;;;;3.83;2.42;;;4.80;99.90;;;;;;5054734;28;20037;-82
2024/01/25 11:27:12;;;;;;;3.78;2.13;;;4.90;99.90;;;;;;5054471;28;20481;-82
2024/01/25 11:29:39;;;;;;;5.55;2.42;;;5.00;99.90;;;;;;5055887;28;20033;-81
2024/01/25 11:32:06;;;;;;;5.05;2.65;;;5.10;99.90;;;;;;5055829;28;20424;-81
2024/01/25 11:34:31;;;;;;;4.55;2.50;;;5.20;99.90;;;;;;5054185;28;20044;-82
2024/01/25 11:37:00;;;;;;;4.43;2.72;;;5.20;99.90;;;;;;5054470;28;20036;-82
2024/01/25 11:39:26;;;;;;;4.60;2.50;;;5.30;99.90;;;;;;5054203;28;20025;-82
2024/01/25 11:41:52;;;;;;;5.05;2.80;;;5.30;99.90;;;;;;5054363;28;20040;-82
2024/01/25 11:44:18;;;;;;;5.43;2.20;;;5.40;99.90;;;;;;5054306;28;20021;-81
2024/01/25 11:46:44;;;;;;;5.13;2.67;;;5.40;99.90;;;;;;5055524;28;20054;-81
2024/01/25 11:49:09;;;;;;;3.72;2.63;;;5.50;99.90;;;;;;5054358;28;20055;-81
2024/01/25 11:51:35;;;;;;;4.10;2.50;;;5.50;99.90;;;;;;5055485;28;20057;-81
2024/01/25 11:54:01;;;;;;;5.25;2.15;;;5.60;99.90;;;;;;5054304;28;20037;-81
2024/01/25 11:56:31;;;;;;;3.38;1.90;;;5.60;99.90;;;;;;5055431;28;20401;-81
2024/01/25 11:58:57;;;;;;;3.08;1.60;;;5.60;99.90;;;;;;5053959;28;20075;-81
2024/01/25 12:01:25;;;;;;;6.57;2.10;;;5.70;99.90;;;;;;5054393;28;20075;-81
2024/01/25 12:03:51;;;;;;;2.97;1.50;;;5.80;99.90;;;;;;5054007;28;20397;-81
2024/01/25 12:06:17;;;;;;;4.07;1.83;;;5.90;99.90;;;;;;5055295;28;20029;-81
2024/01/25 12:08:44;;;;;;;3.58;1.55;;;5.90;99.90;;;;;;5053891;28;20052;-81
2024/01/25 12:11:11;;;;;;;5.68;2.45;;;6.00;99.90;;;;;;5053806;28;20492;-81
2024/01/25 12:13:42;;;;;;;4.45;1.77;;;6.00;99.90;;;;;;5055036;28;20378;-81
2024/01/25 12:16:08;;;;;;;4.40;2.08;;;6.10;99.90;;;;;;5053732;28;20041;-81
2024/01/25 12:18:37;;;;;;;3.20;1.77;;;6.10;99.90;;;;;;5054938;28;20033;-82
2024/01/25 12:21:04;;;;;;;3.70;2.00;;;6.20;99.90;;;;;;5054944;28;20053;-81
2024/01/25 12:23:40;;;;;;;4.32;1.70;;;6.20;99.90;;;;;;5037114;28;20025;-82
2024/01/25 12:26:08;;;;;;;2.35;1.40;;;6.30;99.90;;;;;;5054985;28;20017;-81
2024/01/25 12:28:35;;;;;;;5.75;2.00;;;6.30;99.90;;;;;;5055049;28;20032;-82
2024/01/25 12:31:03;;;;;;;2.85;1.33;;;6.30;99.90;;;;;;5053491;28;20401;-82
2024/01/25 12:33:29;;;;;;;4.18;1.63;;;6.30;99.90;;;;;;5053250;28;20041;-82
2024/01/25 12:35:55;;;;;;;5.05;1.45;;;6.30;99.90;;;;;;5053337;28;20401;-82
2024/01/25 12:38:25;;;;;;;3.17;1.75;;;6.30;99.90;;;;;;5054637;28;20032;-82
2024/01/25 12:40:51;;;;;;;2.40;1.27;;;6.30;99.90;;;;;;5037001;28;20032;-82
2024/01/25 12:43:18;;;;;;;4.38;1.38;;;6.30;99.90;;;;;;5053716;28;20025;-82
2024/01/25 12:45:44;;;;;;;4.85;1.38;;;6.30;99.90;;;;;;5054344;28;20017;-81
2024/01/25 12:48:10;;;;;;;3.13;1.90;;;6.40;99.90;;;;;;5053476;28;20116;-81
2024/01/25 12:50:37;;;;;;;2.92;1.40;;;6.40;99.90;;;;;;5054600;28;20027;-81